Home > Products > Valid Products > TAF

000
FTUS43 KMKX 280731 AAA
TAFMKE
TAF AMD
KMKE 280731Z 2808/2912 00000KT P6SM SCT025 BKN100
     FM281300 18007KT P6SM BKN025
     FM282000 17013KT P6SM BKN250
     FM290600 18012KT P6SM -FZRA SCT008 OVC025
     FM290900 19008KT 6SM -FZRAPL BR OVC008
     FM291100 27006KT 6SM -FZRAPL BR OVC008=



000
FTUS43 KMKX 280731 AAA
TAFMKE
TAF AMD
KMKE 280731Z 2808/2912 00000KT P6SM SCT025 BKN100
     FM281300 18007KT P6SM BKN025
     FM282000 17013KT P6SM BKN250
     FM290600 18012KT P6SM -FZRA SCT008 OVC025
     FM290900 19008KT 6SM -FZRAPL BR OVC008
     FM291100 27006KT 6SM -FZRAPL BR OVC008=



000
FTUS43 KMKX 280531
TAFMSN
TAF
KMSN 280531Z 2806/2906 14004KT P6SM OVC025
     FM280900 16005KT P6SM OVC015
     FM281900 16013KT P6SM BKN250
     FM290400 16009KT P6SM OVC045
     FM290500 16008KT 6SM -FZRA SCT008 OVC025=



000
FTUS43 KMKX 280531
TAFMKE
TAF
KMKE 280531Z 2806/2912 00000KT P6SM OVC025
     FM281300 18007KT P6SM BKN025
     FM282000 17013KT P6SM BKN250
     FM290600 18012KT P6SM -FZRA SCT008 OVC025
     FM290900 19008KT 6SM -FZRAPL BR OVC008
     FM291100 27006KT 6SM -FZRAPL BR OVC008=



000
FTUS43 KMKX 280531
TAFMSN
TAF
KMSN 280531Z 2806/2906 14004KT P6SM OVC025
     FM280900 16005KT P6SM OVC015
     FM281900 16013KT P6SM BKN250
     FM290400 16009KT P6SM OVC045
     FM290500 16008KT 6SM -FZRA SCT008 OVC025=



000
FTUS43 KMKX 280531
TAFMKE
TAF
KMKE 280531Z 2806/2912 00000KT P6SM OVC025
     FM281300 18007KT P6SM BKN025
     FM282000 17013KT P6SM BKN250
     FM290600 18012KT P6SM -FZRA SCT008 OVC025
     FM290900 19008KT 6SM -FZRAPL BR OVC008
     FM291100 27006KT 6SM -FZRAPL BR OVC008=



000
FTUS43 KMKX 280304 AAA
TAFMSN
TAF AMD
KMSN 280304Z 2803/2824 VRB03KT P6SM OVC025
     FM280400 15004KT P6SM OVC020
     FM280900 16005KT 5SM BR BKN015
     FM281300 16006KT P6SM BKN035
     FM281600 16010KT P6SM BKN250
     FM282100 15014KT P6SM OVC050=



000
FTUS43 KMKX 280304 AAA
TAFMSN
TAF AMD
KMSN 280304Z 2803/2824 VRB03KT P6SM OVC025
     FM280400 15004KT P6SM OVC020
     FM280900 16005KT 5SM BR BKN015
     FM281300 16006KT P6SM BKN035
     FM281600 16010KT P6SM BKN250
     FM282100 15014KT P6SM OVC050=



000
FTUS43 KMKX 280304 AAA
TAFMSN
TAF AMD
KMSN 280304Z 2803/2824 VRB03KT P6SM OVC025
     FM280400 15004KT P6SM OVC020
     FM280900 16005KT 5SM BR BKN015
     FM281300 16006KT P6SM BKN035
     FM281600 16010KT P6SM BKN250
     FM282100 15014KT P6SM OVC050=



000
FTUS43 KMKX 280304 AAA
TAFMSN
TAF AMD
KMSN 280304Z 2803/2824 VRB03KT P6SM OVC025
     FM280400 15004KT P6SM OVC020
     FM280900 16005KT 5SM BR BKN015
     FM281300 16006KT P6SM BKN035
     FM281600 16010KT P6SM BKN250
     FM282100 15014KT P6SM OVC050=



000
FTUS43 KMKX 280303 AAB
TAFMKE
TAF AMD
KMKE 280303Z 2803/2906 VRB03KT P6SM BKN022 OVC030
     FM281000 21004KT P6SM BKN250
     FM281400 18008KT P6SM BKN250
     FM281800 18012KT P6SM BKN250
     FM282000 16013G22KT P6SM OVC120
     FM290200 17014KT P6SM OVC040=



000
FTUS43 KMKX 280303 AAB
TAFMKE
TAF AMD
KMKE 280303Z 2803/2906 VRB03KT P6SM BKN022 OVC030
     FM281000 21004KT P6SM BKN250
     FM281400 18008KT P6SM BKN250
     FM281800 18012KT P6SM BKN250
     FM282000 16013G22KT P6SM OVC120
     FM290200 17014KT P6SM OVC040=



000
FTUS43 KMKX 280303 AAB
TAFMKE
TAF AMD
KMKE 280303Z 2803/2906 VRB03KT P6SM BKN022 OVC030
     FM281000 21004KT P6SM BKN250
     FM281400 18008KT P6SM BKN250
     FM281800 18012KT P6SM BKN250
     FM282000 16013G22KT P6SM OVC120
     FM290200 17014KT P6SM OVC040=



000
FTUS43 KMKX 280203 AAA
TAFMKE
TAF AMD
KMKE 280203Z 2802/2906 VRB03KT P6SM BKN022 OVC030
     FM281000 21004KT P6SM BKN250
     FM281400 18008KT P6SM BKN250
     FM281800 18012KT P6SM BKN250
     FM282000 16013G22KT P6SM OVC120
     FM290200 17014KT P6SM OVC040=



000
FTUS43 KMKX 280203 AAA
TAFMKE
TAF AMD
KMKE 280203Z 2802/2906 VRB03KT P6SM BKN022 OVC030
     FM281000 21004KT P6SM BKN250
     FM281400 18008KT P6SM BKN250
     FM281800 18012KT P6SM BKN250
     FM282000 16013G22KT P6SM OVC120
     FM290200 17014KT P6SM OVC040=



000
FTUS43 KMKX 272333
TAFMSN
TAF
KMSN 272333Z 2800/2824 VRB03KT P6SM OVC025
     FM280400 15004KT P6SM OVC020
     FM280900 16005KT 5SM BR BKN015
     FM281300 16006KT P6SM BKN035
     FM281600 16010KT P6SM BKN250
     FM282100 15014KT P6SM OVC050=



000
FTUS43 KMKX 272333
TAFMKE
TAF
KMKE 272333Z 2800/2906 04006KT P6SM BKN025 OVC250
     FM280200 VRB03KT P6SM SCT025 BKN100
     FM281000 21004KT P6SM BKN250
     FM281400 18008KT P6SM BKN250
     FM281800 18012KT P6SM BKN250
     FM282000 16013G22KT P6SM OVC120
     FM290200 17014KT P6SM OVC040=



000
FTUS43 KMKX 272333
TAFMKE
TAF
KMKE 272333Z 2800/2906 04006KT P6SM BKN025 OVC250
     FM280200 VRB03KT P6SM SCT025 BKN100
     FM281000 21004KT P6SM BKN250
     FM281400 18008KT P6SM BKN250
     FM281800 18012KT P6SM BKN250
     FM282000 16013G22KT P6SM OVC120
     FM290200 17014KT P6SM OVC040=



000
FTUS43 KMKX 272333
TAFMSN
TAF
KMSN 272333Z 2800/2824 VRB03KT P6SM OVC025
     FM280400 15004KT P6SM OVC020
     FM280900 16005KT 5SM BR BKN015
     FM281300 16006KT P6SM BKN035
     FM281600 16010KT P6SM BKN250
     FM282100 15014KT P6SM OVC050=



000
FTUS43 KMKX 272311 AAC
TAFMSN
TAF AMD
KMSN 272311Z 2723/2818 00000KT P6SM BKN025
     FM280100 00000KT P6SM BKN035
     FM280500 00000KT 5SM BR SCT015
     FM280800 VRB03KT P6SM SCT050
     FM281400 17007KT P6SM SCT200=



000
FTUS43 KMKX 272055 AAA
TAFMKE
TAF AMD
KMKE 272055Z 2721/2824 06009KT P6SM FEW025 SCT250
     FM272300 03004KT P6SM SCT110
     FM280200 33004KT P6SM SCT150
     FM281000 21004KT P6SM SCT200
     FM281500 19008KT P6SM BKN200
     FM281900 18012KT P6SM BKN250=



000
FTUS43 KMKX 272055 AAA
TAFMKE
TAF AMD
KMKE 272055Z 2721/2824 06009KT P6SM FEW025 SCT250
     FM272300 03004KT P6SM SCT110
     FM280200 33004KT P6SM SCT150
     FM281000 21004KT P6SM SCT200
     FM281500 19008KT P6SM BKN200
     FM281900 18012KT P6SM BKN250=



000
FTUS43 KMKX 271919 AAB
TAFMSN
TAF AMD
KMSN 271919Z 2719/2818 00000KT 4SM BR OVC010
     FM272000 09004KT 6SM BR OVC015
     FM272300 00000KT P6SM BKN015
     FM280100 00000KT P6SM BKN035
     FM280500 00000KT 5SM BR SCT015
     FM280800 VRB03KT P6SM SCT050
     FM281400 17007KT P6SM SCT200=



000
FTUS43 KMKX 271919 AAB
TAFMSN
TAF AMD
KMSN 271919Z 2719/2818 00000KT 4SM BR OVC010
     FM272000 09004KT 6SM BR OVC015
     FM272300 00000KT P6SM BKN015
     FM280100 00000KT P6SM BKN035
     FM280500 00000KT 5SM BR SCT015
     FM280800 VRB03KT P6SM SCT050
     FM281400 17007KT P6SM SCT200=



000
FTUS43 KMKX 271735 AAA
TAFMSN
TAF AMD
KMSN 271735Z 2718/2818 10006KT 3SM BR OVC007
     FM271900 07006KT 6SM BR OVC009
     FM272000 09004KT 6SM BR OVC015
     FM272300 00000KT P6SM BKN015
     FM280100 00000KT P6SM BKN035
     FM280500 00000KT 5SM BR SCT015
     FM280800 VRB03KT P6SM SCT050
     FM281400 17007KT P6SM SCT200=



000
FTUS43 KMKX 271735 AAA
TAFMSN
TAF AMD
KMSN 271735Z 2718/2818 10006KT 3SM BR OVC007
     FM271900 07006KT 6SM BR OVC009
     FM272000 09004KT 6SM BR OVC015
     FM272300 00000KT P6SM BKN015
     FM280100 00000KT P6SM BKN035
     FM280500 00000KT 5SM BR SCT015
     FM280800 VRB03KT P6SM SCT050
     FM281400 17007KT P6SM SCT200=



000
FTUS43 KMKX 271726
TAFMSN
TAF
KMSN 271726Z 2718/2818 05006KT 1SM BR OVC005
     FM271900 07006KT 2SM BR OVC007
     FM272000 09004KT 6SM BR OVC015
     FM272300 00000KT P6SM BKN015
     FM280100 00000KT P6SM BKN035
     FM280500 00000KT 5SM BR SCT015
     FM280800 VRB03KT P6SM SCT050
     FM281400 17007KT P6SM SCT200=



000
FTUS43 KMKX 271726
TAFMKE
TAF
KMKE 271726Z 2718/2824 05009KT P6SM SCT040
     FM272000 06007KT P6SM FEW050
     FM272300 03004KT P6SM SCT110
     FM280200 33004KT P6SM SCT150
     FM281000 21004KT P6SM SCT200
     FM281500 19008KT P6SM BKN200
     FM281900 18012KT P6SM BKN250=



000
FTUS43 KMKX 271726
TAFMSN
TAF
KMSN 271726Z 2718/2818 05006KT 1SM BR OVC005
     FM271900 07006KT 2SM BR OVC007
     FM272000 09004KT 6SM BR OVC015
     FM272300 00000KT P6SM BKN015
     FM280100 00000KT P6SM BKN035
     FM280500 00000KT 5SM BR SCT015
     FM280800 VRB03KT P6SM SCT050
     FM281400 17007KT P6SM SCT200=



000
FTUS43 KMKX 271726
TAFMKE
TAF
KMKE 271726Z 2718/2824 05009KT P6SM SCT040
     FM272000 06007KT P6SM FEW050
     FM272300 03004KT P6SM SCT110
     FM280200 33004KT P6SM SCT150
     FM281000 21004KT P6SM SCT200
     FM281500 19008KT P6SM BKN200
     FM281900 18012KT P6SM BKN250=



000
FTUS43 KMKX 271701 AAB
TAFMSN
TAF AMD
KMSN 271701Z 2717/2812 05004KT 1SM BR OVC005
     FM271800 05006KT 3SM BR OVC007
     FM272200 00000KT P6SM BKN020
     FM280400 00000KT P6SM SCT025
     FM280900 17003KT P6SM BKN110=



000
FTUS43 KMKX 271701 AAB
TAFMSN
TAF AMD
KMSN 271701Z 2717/2812 05004KT 1SM BR OVC005
     FM271800 05006KT 3SM BR OVC007
     FM272200 00000KT P6SM BKN020
     FM280400 00000KT P6SM SCT025
     FM280900 17003KT P6SM BKN110=



000
FTUS43 KMKX 271552 AAB
TAFMKE
TAF AMD
KMKE 271552Z 2716/2818 06009KT P6SM SCT026 BKN040
     FM271900 06007KT P6SM SCT025
     FM272200 04005KT P6SM SCT030
     FM280200 VRB03KT P6SM SCT100
     FM281400 19007KT P6SM BKN100=



000
FTUS43 KMKX 271552 AAB
TAFMKE
TAF AMD
KMKE 271552Z 2716/2818 06009KT P6SM SCT026 BKN040
     FM271900 06007KT P6SM SCT025
     FM272200 04005KT P6SM SCT030
     FM280200 VRB03KT P6SM SCT100
     FM281400 19007KT P6SM BKN100=



000
FTUS43 KMKX 271552 AAB
TAFMKE
TAF AMD
KMKE 271552Z 2716/2818 06009KT P6SM SCT026 BKN040
     FM271900 06007KT P6SM SCT025
     FM272200 04005KT P6SM SCT030
     FM280200 VRB03KT P6SM SCT100
     FM281400 19007KT P6SM BKN100=



000
FTUS43 KMKX 271552 AAB
TAFMKE
TAF AMD
KMKE 271552Z 2716/2818 06009KT P6SM SCT026 BKN040
     FM271900 06007KT P6SM SCT025
     FM272200 04005KT P6SM SCT030
     FM280200 VRB03KT P6SM SCT100
     FM281400 19007KT P6SM BKN100=



000
FTUS43 KMKX 271506 AAA
TAFMSN
TAF AMD
KMSN 271506Z 2715/2812 01007KT 1 1/2SM BR OVC005
     FM271700 05004KT 4SM BR OVC012
     FM272200 00000KT P6SM BKN020
     FM280400 00000KT P6SM SCT025
     FM280900 17003KT P6SM BKN110=



000
FTUS43 KMKX 271506 AAA
TAFMSN
TAF AMD
KMSN 271506Z 2715/2812 01007KT 1 1/2SM BR OVC005
     FM271700 05004KT 4SM BR OVC012
     FM272200 00000KT P6SM BKN020
     FM280400 00000KT P6SM SCT025
     FM280900 17003KT P6SM BKN110=



000
FTUS43 KMKX 271433 AAA
TAFMKE
TAF AMD
KMKE 271433Z 2715/2818 06010KT P6SM BKN021 BKN025
     FM271900 06007KT P6SM BKN020
     FM272200 04005KT P6SM SCT025
     FM280200 VRB03KT P6SM SCT100
     FM281400 19007KT P6SM BKN100=



000
FTUS43 KMKX 271433 AAA
TAFMKE
TAF AMD
KMKE 271433Z 2715/2818 06010KT P6SM BKN021 BKN025
     FM271900 06007KT P6SM BKN020
     FM272200 04005KT P6SM SCT025
     FM280200 VRB03KT P6SM SCT100
     FM281400 19007KT P6SM BKN100=



000
FTUS43 KMKX 271120
TAFMSN
TAF
KMSN 271120Z 2712/2812 02003KT 5SM BR OVC008
     FM271600 05004KT P6SM OVC012
     FM272200 00000KT P6SM BKN020
     FM280400 00000KT P6SM SCT025
     FM280900 17003KT P6SM BKN110=



000
FTUS43 KMKX 271120
TAFMSN
TAF
KMSN 271120Z 2712/2812 02003KT 5SM BR OVC008
     FM271600 05004KT P6SM OVC012
     FM272200 00000KT P6SM BKN020
     FM280400 00000KT P6SM SCT025
     FM280900 17003KT P6SM BKN110=



000
FTUS43 KMKX 271120
TAFMKE
TAF
KMKE 271120Z 2712/2818 01005KT 6SM BR OVC015
     FM271500 04008KT P6SM OVC015
     FM271900 06007KT P6SM BKN020
     FM272200 04005KT P6SM SCT025
     FM280200 VRB03KT P6SM SCT100
     FM281400 19007KT P6SM BKN100=



000
FTUS43 KMKX 271120
TAFMKE
TAF
KMKE 271120Z 2712/2818 01005KT 6SM BR OVC015
     FM271500 04008KT P6SM OVC015
     FM271900 06007KT P6SM BKN020
     FM272200 04005KT P6SM SCT025
     FM280200 VRB03KT P6SM SCT100
     FM281400 19007KT P6SM BKN100=



000
FTUS43 KMKX 270946 AAA
TAFMSN
TAF AMD
KMSN 270946Z 2710/2806 35005KT 5SM BR OVC008
     FM271400 04005KT P6SM OVC012
     FM271900 07004KT P6SM BKN020
     FM272100 VRB03KT P6SM BKN040
     FM280200 00000KT P6SM SCT130=



000
FTUS43 KMKX 270946 AAA
TAFMSN
TAF AMD
KMSN 270946Z 2710/2806 35005KT 5SM BR OVC008
     FM271400 04005KT P6SM OVC012
     FM271900 07004KT P6SM BKN020
     FM272100 VRB03KT P6SM BKN040
     FM280200 00000KT P6SM SCT130=



000
FTUS43 KMKX 270901 AAA
TAFMKE
TAF AMD
KMKE 270901Z 2709/2812 32003KT 5SM BR OVC013
     FM271700 05007KT P6SM BKN020
     FM272000 05006KT P6SM SCT020
     FM280800 23004KT P6SM SCT250=



000
FTUS43 KMKX 270901 AAA
TAFMKE
TAF AMD
KMKE 270901Z 2709/2812 32003KT 5SM BR OVC013
     FM271700 05007KT P6SM BKN020
     FM272000 05006KT P6SM SCT020
     FM280800 23004KT P6SM SCT250=



000
FTUS43 KMKX 270536
TAFMSN
TAF
KMSN 270536Z 2706/2806 00000KT 6SM BR OVC013
     FM271300 04005KT P6SM OVC015
     FM271900 07004KT P6SM BKN025
     FM272100 VRB03KT P6SM BKN040
     FM280200 00000KT P6SM SCT130=



000
FTUS43 KMKX 270536
TAFMKE
TAF
KMKE 270536Z 2706/2812 00000KT 4SM -SN BR OVC018
     FM270800 04005KT 6SM BR OVC015
     FM271200 01005KT P6SM OVC025
     FM271700 05007KT P6SM BKN040
     FM272000 05006KT P6SM SCT060
     FM280800 23004KT P6SM SCT250=



000
FTUS43 KMKX 270536
TAFMKE
TAF
KMKE 270536Z 2706/2812 00000KT 4SM -SN BR OVC018
     FM270800 04005KT 6SM BR OVC015
     FM271200 01005KT P6SM OVC025
     FM271700 05007KT P6SM BKN040
     FM272000 05006KT P6SM SCT060
     FM280800 23004KT P6SM SCT250=



000
FTUS43 KMKX 270536
TAFMSN
TAF
KMSN 270536Z 2706/2806 00000KT 6SM BR OVC013
     FM271300 04005KT P6SM OVC015
     FM271900 07004KT P6SM BKN025
     FM272100 VRB03KT P6SM BKN040
     FM280200 00000KT P6SM SCT130=



000
FTUS43 KMKX 270211 AAA
TAFMKE
TAF AMD
KMKE 270211Z 2702/2806 15008KT 5SM -SN SCT009 OVC015
      TEMPO 2702/2704 2SM -SN BKN009 OVC012
     FM270800 10005KT 6SM BR OVC020
     FM271200 06005KT P6SM OVC025
     FM271600 05007KT P6SM BKN035
     FM272200 04005KT P6SM SCT200=



000
FTUS43 KMKX 270211 AAA
TAFMKE
TAF AMD
KMKE 270211Z 2702/2806 15008KT 5SM -SN SCT009 OVC015
      TEMPO 2702/2704 2SM -SN BKN009 OVC012
     FM270800 10005KT 6SM BR OVC020
     FM271200 06005KT P6SM OVC025
     FM271600 05007KT P6SM BKN035
     FM272200 04005KT P6SM SCT200=



000
FTUS43 KMKX 270209 AAB
TAFMSN
TAF AMD
KMSN 270209Z 2702/2724 18007KT 6SM -SN BR OVC008
      TEMPO 2702/2705 2SM -FZDZSN OVC006
     FM270600 VRB03KT P6SM OVC008
     FM271300 01004KT 6SM BR OVC008
     FM271600 03004KT P6SM BKN015=



000
FTUS43 KMKX 270023 AAA
TAFMSN
TAF AMD
KMSN 270023Z 2700/2724 18007KT 2SM -FZDZ BR BKN008 OVC015
      TEMPO 2700/2702 3SM -SN BR OVC006
     FM270500 VRB03KT 3SM BR OVC008
     FM271300 01004KT 6SM BR OVC008
     FM271600 03004KT P6SM BKN015=



000
FTUS43 KMKX 270023 AAA
TAFMSN
TAF AMD
KMSN 270023Z 2700/2724 18007KT 2SM -FZDZ BR BKN008 OVC015
      TEMPO 2700/2702 3SM -SN BR OVC006
     FM270500 VRB03KT 3SM BR OVC008
     FM271300 01004KT 6SM BR OVC008
     FM271600 03004KT P6SM BKN015=



000
FTUS43 KMKX 262323
TAFMKE
TAF
KMKE 262323Z 2700/2806 15008KT 6SM -SN FEW015 BKN020 OVC050
     FM270300 16005KT 3SM BR OVC020
     FM270800 10005KT 6SM BR OVC020
     FM271200 06005KT P6SM OVC025
     FM271600 05007KT P6SM BKN035
     FM272200 04005KT P6SM SCT200=



000
FTUS43 KMKX 262323
TAFMSN
TAF
KMSN 262323Z 2700/2724 18007KT 2SM -FZDZ BR BKN008 OVC015
      TEMPO 2700/2702 1SM -FZDZ BR OVC006
     FM270500 VRB03KT 3SM BR OVC008
     FM271300 01004KT 6SM BR OVC008
     FM271600 03004KT P6SM BKN015=



000
FTUS43 KMKX 262323
TAFMSN
TAF
KMSN 262323Z 2700/2724 18007KT 2SM -FZDZ BR BKN008 OVC015
      TEMPO 2700/2702 1SM -FZDZ BR OVC006
     FM270500 VRB03KT 3SM BR OVC008
     FM271300 01004KT 6SM BR OVC008
     FM271600 03004KT P6SM BKN015=



000
FTUS43 KMKX 262323
TAFMKE
TAF
KMKE 262323Z 2700/2806 15008KT 6SM -SN FEW015 BKN020 OVC050
     FM270300 16005KT 3SM BR OVC020
     FM270800 10005KT 6SM BR OVC020
     FM271200 06005KT P6SM OVC025
     FM271600 05007KT P6SM BKN035
     FM272200 04005KT P6SM SCT200=



000
FTUS43 KMKX 262046 AAC
TAFMKE
TAF AMD
KMKE 262046Z 2621/2724 14010KT 2SM -SN BKN015 OVC025
     FM270400 14005KT 3SM BR OVC015
     FM270900 09005KT P6SM OVC020
     FM271600 06006KT P6SM BKN030
     FM271900 05006KT P6SM BKN050=



000
FTUS43 KMKX 262046 AAC
TAFMKE
TAF AMD
KMKE 262046Z 2621/2724 14010KT 2SM -SN BKN015 OVC025
     FM270400 14005KT 3SM BR OVC015
     FM270900 09005KT P6SM OVC020
     FM271600 06006KT P6SM BKN030
     FM271900 05006KT P6SM BKN050=



000
FTUS43 KMKX 262040 AAF
TAFMSN
TAF AMD
KMSN 262040Z 2621/2718 18009KT 2SM -FZDZ BR BKN005 OVC010
     FM270300 00000KT 3SM BR OVC010
     FM270700 00000KT 5SM BR OVC015
     FM271300 01005KT P6SM OVC015=



000
FTUS43 KMKX 262040 AAF
TAFMSN
TAF AMD
KMSN 262040Z 2621/2718 18009KT 2SM -FZDZ BR BKN005 OVC010
     FM270300 00000KT 3SM BR OVC010
     FM270700 00000KT 5SM BR OVC015
     FM271300 01005KT P6SM OVC015=



000
FTUS43 KMKX 261907 AAE
TAFMSN
TAF AMD
KMSN 261907Z 2619/2718 18009KT 3SM -FZDZ BR BKN020 OVC030
     FM262100 16005KT 3SM -FZDZ OVC015
     FM270300 00000KT P6SM OVC015
     FM270700 00000KT 5SM BR OVC015
     FM271300 01005KT P6SM OVC035=



000
FTUS43 KMKX 261907 AAE
TAFMSN
TAF AMD
KMSN 261907Z 2619/2718 18009KT 3SM -FZDZ BR BKN020 OVC030
     FM262100 16005KT 3SM -FZDZ OVC015
     FM270300 00000KT P6SM OVC015
     FM270700 00000KT 5SM BR OVC015
     FM271300 01005KT P6SM OVC035=



000
FTUS43 KMKX 261900 AAD
TAFMSN
TAF AMD
KMSN 261900Z 2619/2718 18009KT 3SM -SN BKN020 OVC030
     FM262100 16005KT 3SM -FZDZ OVC015
     FM270300 00000KT P6SM OVC015
     FM270700 00000KT 5SM BR OVC015
     FM271300 01005KT P6SM OVC035=



000
FTUS43 KMKX 261900 AAD
TAFMSN
TAF AMD
KMSN 261900Z 2619/2718 18009KT 3SM -SN BKN020 OVC030
     FM262100 16005KT 3SM -FZDZ OVC015
     FM270300 00000KT P6SM OVC015
     FM270700 00000KT 5SM BR OVC015
     FM271300 01005KT P6SM OVC035=



000
FTUS43 KMKX 261741 AAB
TAFMKE
TAF AMD
KMKE 261741Z 2618/2724 18006KT P6SM BKN150
     FM262000 18007KT 3SM -SN OVC040
      TEMPO 2620/2622 2SM -SN OVC015
     FM270600 14004KT P6SM OVC020
     FM270900 09005KT P6SM OVC020
     FM271400 06006KT P6SM OVC020
     FM271600 06006KT P6SM BKN050
     FM271900 05006KT P6SM SCT050=



000
FTUS43 KMKX 261741 AAC
TAFMSN
TAF AMD
KMSN 261741Z 2618/2718 18009KT 4SM -SN OVC030
      TEMPO 2618/2621 6SM OVC050
     FM262100 16005KT P6SM -FZDZ OVC015
     FM270300 00000KT P6SM OVC015
     FM270700 00000KT 5SM BR OVC015
     FM271300 01005KT P6SM OVC035=



000
FTUS43 KMKX 261741 AAC
TAFMSN
TAF AMD
KMSN 261741Z 2618/2718 18009KT 4SM -SN OVC030
      TEMPO 2618/2621 6SM OVC050
     FM262100 16005KT P6SM -FZDZ OVC015
     FM270300 00000KT P6SM OVC015
     FM270700 00000KT 5SM BR OVC015
     FM271300 01005KT P6SM OVC035=



000
FTUS43 KMKX 261741 AAB
TAFMKE
TAF AMD
KMKE 261741Z 2618/2724 18006KT P6SM BKN150
     FM262000 18007KT 3SM -SN OVC040
      TEMPO 2620/2622 2SM -SN OVC015
     FM270600 14004KT P6SM OVC020
     FM270900 09005KT P6SM OVC020
     FM271400 06006KT P6SM OVC020
     FM271600 06006KT P6SM BKN050
     FM271900 05006KT P6SM SCT050=



000
FTUS43 KMKX 261659 AAB
TAFMSN
TAF AMD
KMSN 261659Z 2617/2712 17007KT 3SM -SN SCT020 OVC050
     FM262300 17004KT 3SM -FZDZSN BR OVC015
     FM270300 00000KT 3SM -FZDZSN BR OVC010
     FM270600 00000KT 3SM BR OVC008=



000
FTUS43 KMKX 261500 AAA
TAFMKE
TAF AMD
KMKE 261500Z 2615/2718 22004KT P6SM SCT080 OVC120
     FM261700 18007KT P6SM OVC050
     FM262000 16008KT 3SM -SN OVC035
      TEMPO 2622/2702 2SM -SN OVC030
     FM270300 16005KT 3SM -SN OVC015
     FM270700 VRB05KT 3SM BR OVC015=



000
FTUS43 KMKX 261500 AAA
TAFMKE
TAF AMD
KMKE 261500Z 2615/2718 22004KT P6SM SCT080 OVC120
     FM261700 18007KT P6SM OVC050
     FM262000 16008KT 3SM -SN OVC035
      TEMPO 2622/2702 2SM -SN OVC030
     FM270300 16005KT 3SM -SN OVC015
     FM270700 VRB05KT 3SM BR OVC015=



000
FTUS43 KMKX 261453 AAA
TAFMSN
TAF AMD
KMSN 261453Z 2615/2712 17010KT 1 1/2SM -SN OVC025
      TEMPO 2615/2617 1/2SM SN SCT008 BKN015
     FM261700 17007KT 3SM -SN SCT010 OVC015
     FM262300 17004KT 3SM -FZDZSN BR OVC015
     FM270300 00000KT 3SM -FZDZSN BR OVC010
     FM270600 00000KT 3SM BR OVC008=



000
FTUS43 KMKX 261453 AAA
TAFMSN
TAF AMD
KMSN 261453Z 2615/2712 17010KT 1 1/2SM -SN OVC025
      TEMPO 2615/2617 1/2SM SN SCT008 BKN015
     FM261700 17007KT 3SM -SN SCT010 OVC015
     FM262300 17004KT 3SM -FZDZSN BR OVC015
     FM270300 00000KT 3SM -FZDZSN BR OVC010
     FM270600 00000KT 3SM BR OVC008=



000
FTUS43 KMKX 261134
TAFMSN
TAF
KMSN 261134Z 2612/2712 00000KT P6SM OVC110
      TEMPO 2615/2616 3SM -SN BKN035
     FM261600 18006KT 2SM -SN OVC030
     FM261800 17007KT 2SM -SN OVC010
     FM270100 17004KT 3SM -FZDZSN BR OVC015
     FM270300 00000KT 3SM -FZDZSN BR OVC010
     FM270600 00000KT 3SM BR OVC008=



000
FTUS43 KMKX 261134
TAFMKE
TAF
KMKE 261134Z 2612/2718 VRB03KT P6SM SCT022 OVC080
     FM261700 18007KT P6SM OVC050
     FM262000 16008KT 3SM -SN OVC035
      TEMPO 2622/2702 2SM -SN OVC030
     FM270300 16005KT 3SM -SN OVC015
     FM270700 VRB05KT 3SM BR OVC015=



000
FTUS43 KMKX 261134
TAFMSN
TAF
KMSN 261134Z 2612/2712 00000KT P6SM OVC110
      TEMPO 2615/2616 3SM -SN BKN035
     FM261600 18006KT 2SM -SN OVC030
     FM261800 17007KT 2SM -SN OVC010
     FM270100 17004KT 3SM -FZDZSN BR OVC015
     FM270300 00000KT 3SM -FZDZSN BR OVC010
     FM270600 00000KT 3SM BR OVC008=



000
FTUS43 KMKX 261134
TAFMKE
TAF
KMKE 261134Z 2612/2718 VRB03KT P6SM SCT022 OVC080
     FM261700 18007KT P6SM OVC050
     FM262000 16008KT 3SM -SN OVC035
      TEMPO 2622/2702 2SM -SN OVC030
     FM270300 16005KT 3SM -SN OVC015
     FM270700 VRB05KT 3SM BR OVC015=



000
FTUS43 KMKX 260956 AAB
TAFMKE
TAF AMD
KMKE 260956Z 2610/2712 VRB05KT P6SM BKN027
     FM261200 20004KT P6SM SCT030 BKN090
     FM261900 18008KT 2SM -SN OVC020
     FM270300 19004KT 3SM -FZDZ OVC010
     FM270800 31004KT 3SM BR OVC007=



000
FTUS43 KMKX 260956 AAB
TAFMKE
TAF AMD
KMKE 260956Z 2610/2712 VRB05KT P6SM BKN027
     FM261200 20004KT P6SM SCT030 BKN090
     FM261900 18008KT 2SM -SN OVC020
     FM270300 19004KT 3SM -FZDZ OVC010
     FM270800 31004KT 3SM BR OVC007=



000
FTUS43 KMKX 260656 AAA
TAFMKE
TAF AMD
KMKE 260656Z 2607/2712 VRB05KT P6SM BKN027
     FM261000 VRB03KT P6SM SCT030
     FM261300 20004KT P6SM SCT030 BKN090
     FM261900 18008KT 2SM -SN OVC020
     FM270300 19004KT 3SM -FZDZ OVC010
     FM270800 31004KT 3SM BR OVC007=



000
FTUS43 KMKX 260656 AAA
TAFMKE
TAF AMD
KMKE 260656Z 2607/2712 VRB05KT P6SM BKN027
     FM261000 VRB03KT P6SM SCT030
     FM261300 20004KT P6SM SCT030 BKN090
     FM261900 18008KT 2SM -SN OVC020
     FM270300 19004KT 3SM -FZDZ OVC010
     FM270800 31004KT 3SM BR OVC007=



000
FTUS43 KMKX 260520
TAFMSN
TAF
KMSN 260520Z 2606/2706 00000KT P6SM SCT200
     FM261100 00000KT P6SM OVC100
     FM261600 18006KT 2SM -SN BKN012 OVC040
     FM262000 18006KT 3SM -SN OVC010
     FM270000 20004KT 4SM -FZDZ BR OVC010
     FM270400 26004KT 4SM BR OVC007=



000
FTUS43 KMKX 260520
TAFMKE
TAF
KMKE 260520Z 2606/2712 06006KT P6SM SCT030 BKN100
     FM260900 VRB03KT P6SM BKN030
     FM261300 20004KT P6SM OVC035
     FM261900 18008KT 2SM -SN OVC020
     FM270300 19004KT 3SM -FZDZ OVC010
     FM270800 31004KT 3SM BR OVC007=



000
FTUS43 KMKX 260520
TAFMSN
TAF
KMSN 260520Z 2606/2706 00000KT P6SM SCT200
     FM261100 00000KT P6SM OVC100
     FM261600 18006KT 2SM -SN BKN012 OVC040
     FM262000 18006KT 3SM -SN OVC010
     FM270000 20004KT 4SM -FZDZ BR OVC010
     FM270400 26004KT 4SM BR OVC007=



000
FTUS43 KMKX 260520
TAFMKE
TAF
KMKE 260520Z 2606/2712 06006KT P6SM SCT030 BKN100
     FM260900 VRB03KT P6SM BKN030
     FM261300 20004KT P6SM OVC035
     FM261900 18008KT 2SM -SN OVC020
     FM270300 19004KT 3SM -FZDZ OVC010
     FM270800 31004KT 3SM BR OVC007=



000
FTUS43 KMKX 252320
TAFMSN
TAF
KMSN 252320Z 2600/2624 03008KT P6SM SCT250
     FM260300 03004KT P6SM SCT100
     FM261200 VRB03KT P6SM OVC070
     FM261500 18005KT 2SM -SN OVC035
     FM261800 18008KT 6SM -FZDZSN OVC010=



000
FTUS43 KMKX 252320
TAFMKE
TAF
KMKE 252320Z 2600/2706 03013G23KT P6SM BKN025
     FM260300 04011KT P6SM BKN025
     FM261100 12004KT P6SM BKN025
     FM261300 16004KT P6SM OVC030
     FM261800 18007KT 6SM -SN OVC015
     FM262100 18008KT 2SM -SN OVC015
     FM270300 19004KT P6SM OVC015=



000
FTUS43 KMKX 252320
TAFMKE
TAF
KMKE 252320Z 2600/2706 03013G23KT P6SM BKN025
     FM260300 04011KT P6SM BKN025
     FM261100 12004KT P6SM BKN025
     FM261300 16004KT P6SM OVC030
     FM261800 18007KT 6SM -SN OVC015
     FM262100 18008KT 2SM -SN OVC015
     FM270300 19004KT P6SM OVC015=



000
FTUS43 KMKX 252320
TAFMSN
TAF
KMSN 252320Z 2600/2624 03008KT P6SM SCT250
     FM260300 03004KT P6SM SCT100
     FM261200 VRB03KT P6SM OVC070
     FM261500 18005KT 2SM -SN OVC035
     FM261800 18008KT 6SM -FZDZSN OVC010=



000
FTUS43 KMKX 252046 AAA
TAFMKE
TAF AMD
KMKE 252046Z 2521/2624 04017G24KT P6SM SCT025
      TEMPO 2521/2524 BKN025
     FM260000 03013G20KT P6SM BKN025
     FM260400 04009G17KT P6SM BKN030
     FM260900 VRB03KT P6SM BKN035
     FM261600 19006KT P6SM OVC030
     FM261800 18007KT P6SM -SN OVC030
     FM262100 18008KT 2SM -SN OVC015=



000
FTUS43 KMKX 252046 AAA
TAFMSN
TAF AMD
KMSN 252046Z 2521/2618 04012KT P6SM SCT035
     FM260000 03008KT P6SM SCT050
     FM260300 VRB02KT P6SM SCT100
     FM261500 18005KT P6SM -SN OVC025
     FM261700 18007KT 3SM -SN OVC020=



000
FTUS43 KMKX 252046 AAA
TAFMSN
TAF AMD
KMSN 252046Z 2521/2618 04012KT P6SM SCT035
     FM260000 03008KT P6SM SCT050
     FM260300 VRB02KT P6SM SCT100
     FM261500 18005KT P6SM -SN OVC025
     FM261700 18007KT 3SM -SN OVC020=



000
FTUS43 KMKX 252046 AAA
TAFMKE
TAF AMD
KMKE 252046Z 2521/2624 04017G24KT P6SM SCT025
      TEMPO 2521/2524 BKN025
     FM260000 03013G20KT P6SM BKN025
     FM260400 04009G17KT P6SM BKN030
     FM260900 VRB03KT P6SM BKN035
     FM261600 19006KT P6SM OVC030
     FM261800 18007KT P6SM -SN OVC030
     FM262100 18008KT 2SM -SN OVC015=



000
FTUS43 KMKX 251746
TAFMSN
TAF
KMSN 251746Z 2518/2618 04013G20KT P6SM OVC015
     FM252000 04012KT P6SM SCT035
     FM260000 03008KT P6SM SCT050
     FM260300 VRB02KT P6SM SCT100
     FM261500 18005KT P6SM -SN OVC025
     FM261700 18007KT 3SM -SN OVC020=



000
FTUS43 KMKX 251746
TAFMKE
TAF
KMKE 251746Z 2518/2624 05017G24KT P6SM SCT060
     FM260000 03013G20KT P6SM BKN025
     FM260400 04009G17KT P6SM BKN030
     FM260900 VRB03KT P6SM BKN035
     FM261600 19006KT P6SM OVC030
     FM261800 18007KT P6SM -SN OVC030
     FM262100 18008KT 2SM -SN OVC015=



000
FTUS43 KMKX 251746
TAFMSN
TAF
KMSN 251746Z 2518/2618 04013G20KT P6SM OVC015
     FM252000 04012KT P6SM SCT035
     FM260000 03008KT P6SM SCT050
     FM260300 VRB02KT P6SM SCT100
     FM261500 18005KT P6SM -SN OVC025
     FM261700 18007KT 3SM -SN OVC020=



000
FTUS43 KMKX 251746
TAFMKE
TAF
KMKE 251746Z 2518/2624 05017G24KT P6SM SCT060
     FM260000 03013G20KT P6SM BKN025
     FM260400 04009G17KT P6SM BKN030
     FM260900 VRB03KT P6SM BKN035
     FM261600 19006KT P6SM OVC030
     FM261800 18007KT P6SM -SN OVC030
     FM262100 18008KT 2SM -SN OVC015=



000
FTUS43 KMKX 251457 AAA
TAFMKE
TAF AMD
KMKE 251457Z 2515/2618 04018G26KT 6SM -SN SCT015 OVC035
     FM251600 05017G24KT P6SM OVC015
     FM260100 04008KT P6SM BKN030
     FM260800 05005KT P6SM SCT030
     FM261100 17004KT P6SM BKN100
     FM261700 20008KT P6SM OVC060=



000
FTUS43 KMKX 251457 AAA
TAFMKE
TAF AMD
KMKE 251457Z 2515/2618 04018G26KT 6SM -SN SCT015 OVC035
     FM251600 05017G24KT P6SM OVC015
     FM260100 04008KT P6SM BKN030
     FM260800 05005KT P6SM SCT030
     FM261100 17004KT P6SM BKN100
     FM261700 20008KT P6SM OVC060=



000
FTUS43 KMKX 251457 AAC
TAFMSN
TAF AMD
KMSN 251457Z 2515/2612 05014G20KT 6SM -SN BKN018 OVC035
     FM251600 05014G21KT P6SM OVC022
     FM251800 04014G21KT P6SM SCT025
     FM252300 03007KT P6SM SCT110
     FM260900 VRB03KT P6SM BKN100=



000
FTUS43 KMKX 251457 AAC
TAFMSN
TAF AMD
KMSN 251457Z 2515/2612 05014G20KT 6SM -SN BKN018 OVC035
     FM251600 05014G21KT P6SM OVC022
     FM251800 04014G21KT P6SM SCT025
     FM252300 03007KT P6SM SCT110
     FM260900 VRB03KT P6SM BKN100=



000
FTUS43 KMKX 251311 AAB
TAFMSN
TAF AMD
KMSN 251311Z 2513/2612 05014G20KT 6SM -SN SCT015 OVC050
      TEMPO 2513/2515 4SM -SN BKN015
     FM251500 05014G21KT P6SM OVC022
     FM251800 04014G21KT P6SM SCT025
     FM252300 03007KT P6SM SCT110
     FM260900 VRB03KT P6SM BKN100=



000
FTUS43 KMKX 251311 AAB
TAFMSN
TAF AMD
KMSN 251311Z 2513/2612 05014G20KT 6SM -SN SCT015 OVC050
      TEMPO 2513/2515 4SM -SN BKN015
     FM251500 05014G21KT P6SM OVC022
     FM251800 04014G21KT P6SM SCT025
     FM252300 03007KT P6SM SCT110
     FM260900 VRB03KT P6SM BKN100=



000
FTUS43 KMKX 251207 AAA
TAFMSN
TAF AMD
KMSN 251207Z 2512/2612 05016G22KT 6SM -SN OVC015
      TEMPO 2512/2513 4SM -SN
     FM251400 05015G22KT P6SM OVC015
     FM251800 04014G21KT P6SM SCT025
     FM252300 03007KT P6SM SCT110
     FM260900 VRB03KT P6SM BKN100=



000
FTUS43 KMKX 251207 AAA
TAFMSN
TAF AMD
KMSN 251207Z 2512/2612 05016G22KT 6SM -SN OVC015
      TEMPO 2512/2513 4SM -SN
     FM251400 05015G22KT P6SM OVC015
     FM251800 04014G21KT P6SM SCT025
     FM252300 03007KT P6SM SCT110
     FM260900 VRB03KT P6SM BKN100=



000
FTUS43 KMKX 251130
TAFMSN
TAF
KMSN 251130Z 2512/2612 05016G22KT 6SM -SN OVC015
     FM251400 05015G22KT P6SM OVC015
     FM251800 04014G21KT P6SM SCT025
     FM252300 03007KT P6SM SCT110
     FM260900 VRB03KT P6SM BKN100=



000
FTUS43 KMKX 251130
TAFMKE
TAF
KMKE 251130Z 2512/2618 04018G26KT 3SM -SN OVC015
      TEMPO 2512/2513 2SM -SN
     FM251500 05017G24KT P6SM OVC015
     FM260100 04008KT P6SM BKN030
     FM260800 05005KT P6SM SCT030
     FM261100 17004KT P6SM BKN100
     FM261700 20008KT P6SM OVC060=



000
FTUS43 KMKX 251130
TAFMSN
TAF
KMSN 251130Z 2512/2612 05016G22KT 6SM -SN OVC015
     FM251400 05015G22KT P6SM OVC015
     FM251800 04014G21KT P6SM SCT025
     FM252300 03007KT P6SM SCT110
     FM260900 VRB03KT P6SM BKN100=



000
FTUS43 KMKX 251130
TAFMKE
TAF
KMKE 251130Z 2512/2618 04018G26KT 3SM -SN OVC015
      TEMPO 2512/2513 2SM -SN
     FM251500 05017G24KT P6SM OVC015
     FM260100 04008KT P6SM BKN030
     FM260800 05005KT P6SM SCT030
     FM261100 17004KT P6SM BKN100
     FM261700 20008KT P6SM OVC060=



000
FTUS43 KMKX 251103 AAF
TAFMKE
TAF AMD
KMKE 251103Z 2511/2612 04018G26KT 3SM -SN OVC014
      TEMPO 2511/2513 2SM -SN
     FM251500 04016G23KT P6SM BKN017
     FM252200 04015KT P6SM BKN020
     FM260500 04007KT P6SM BKN020=



000
FTUS43 KMKX 251103 AAF
TAFMKE
TAF AMD
KMKE 251103Z 2511/2612 04018G26KT 3SM -SN OVC014
      TEMPO 2511/2513 2SM -SN
     FM251500 04016G23KT P6SM BKN017
     FM252200 04015KT P6SM BKN020
     FM260500 04007KT P6SM BKN020=



000
FTUS43 KMKX 251005 AAB
TAFMSN
TAF AMD
KMSN 251005Z 2510/2606 06014G20KT P6SM OVC014
     FM251400 05014G21KT P6SM BKN025
     FM251800 03013G20KT P6SM SCT028
     FM252300 03009KT P6SM FEW028=



000
FTUS43 KMKX 251005 AAB
TAFMSN
TAF AMD
KMSN 251005Z 2510/2606 06014G20KT P6SM OVC014
     FM251400 05014G21KT P6SM BKN025
     FM251800 03013G20KT P6SM SCT028
     FM252300 03009KT P6SM FEW028=



000
FTUS43 KMKX 250954 AAE
TAFMKE
TAF AMD
KMKE 250954Z 2510/2612 04015G23KT P6SM OVC010
      TEMPO 2510/2512 3SM -SN
     FM252200 04015KT P6SM BKN020
     FM260500 04007KT P6SM BKN020=



000
FTUS43 KMKX 250954 AAE
TAFMKE
TAF AMD
KMKE 250954Z 2510/2612 04015G23KT P6SM OVC010
      TEMPO 2510/2512 3SM -SN
     FM252200 04015KT P6SM BKN020
     FM260500 04007KT P6SM BKN020=



000
FTUS43 KMKX 250954 AAE
TAFMKE
TAF AMD
KMKE 250954Z 2510/2612 04015G23KT P6SM OVC010
      TEMPO 2510/2512 3SM -SN
     FM252200 04015KT P6SM BKN020
     FM260500 04007KT P6SM BKN020=



000
FTUS43 KMKX 250954 AAE
TAFMKE
TAF AMD
KMKE 250954Z 2510/2612 04015G23KT P6SM OVC010
      TEMPO 2510/2512 3SM -SN
     FM252200 04015KT P6SM BKN020
     FM260500 04007KT P6SM BKN020=



    US Dept of Commerce
    National Oceanic and Atmospheric Administration
    National Weather Service
    1325 East West Highway
    Silver Spring, MD 20910
    Page Author: NWS Internet Services Team
Disclaimer
Information Quality
Credits
Glossary
Privacy Policy
Freedom of Information Act (FOIA)
About Us
Career Opportunities